Friday, May 06, 2016
18:48 UTC
  |  Log In   |  Register Free
Airport Search:

Newnan Coweta County Airport
(KCCO)

Newnan Coweta County Airport Diagram
No Airport Diagram Available

FAA data valid effective Mar 31 2016 - May 26 2016 (unless otherwise noted).

 
 
 
 
 
 
 
 
 
 
 
 
 
 
Current Aviation Weather for KCCO

Weather Summary


The most recent METAR observation for CCO was updated at: 12:55 UTC
METAR for KCCO is not available. Closest METAR is for KFFC
KCCO  (most recent observation was updatred at 61:83 UTC)
061835Z AUTO 35015G26KT 10SM SCT060 21/06 A2993 RMK AO2 T02070060

KFFC  (10.3 nm SW)   (most recent observation was updated at 61:75 UTC)
061753Z AUTO 33018G28KT 10SM FEW060 20/03 A2993 RMK AO2 PKWND 33028/1752 SLP135 T02000033 10206 20094 58010

KLGC  (23.7 nm NE)   (most recent observation was updated at 61:83 UTC)
061835Z AUTO 34012G17KT 320V040 10SM SCT060 22/09 A2994 RMK AO2 T02170091

TAF for KCCO is not available.
KATL  (26.0 nm SW)   (most recent observation was updatred at 61:72 UTC)
061729Z 0618/0724 35018G28KT P6SM SCT060 FM070000 33012G20KT P6SM FEW070 FM070300 31008KT P6SM SKC FM071500 30012KT P6SM FEW045


KFTY  (30.7 nm SW)   (most recent observation was updatred at 61:72 UTC)
061729Z 0618/0718 34015G25KT P6SM SCT060 FM070000 32010G18KT P6SM FEW070 FM070300 32004KT P6SM SKC FM071500 30010KT P6SM FEW045


GlobalAir.com is loading additional information.
 Current Weather at CCO
67.0 F° (19.2 C°)

North winds at 17.3 mph
Pressure:
29.95 in
Humidity:
46%
Wind:
North at 17.3 mph
Dew Point:
45.0 F° (7.2 C°)
Visibility:
10.00 mi
CCO NOAA Radar




Find All Airport Services Find A Hotel Find A Rental Car Find A Golf Course Find A Restaurant $100 Hamburger



Airport Weather Forecast for KCCO

Translated METAR for KCCO (1835 UTC)
METAR:
KCCO 061835Z AUTO 35015G26KT 10SM SCT060 21/06 A2993 RMK AO2 T02070060
Conditions at:
KCCO (Newnan Coweta County, GA) observed 1835 UTC 06 May 2016
Temperature:
21°C (69.8°F)
Dewpoint:
6°C (42.8°F) [RH = 37.6]
Pressure:
29.93 inches Hg (1013.5 mb)
Winds:
from the N (350 degrees) at 17.3 mph (15 knots: 7.7 m/s)
gusting to 29.9 mph (26 knots: 13.4 m/s)
Visibility:
10 mile(s)
Ceiling:
at least 12,000 feet AGL
Clouds:
Scattered Clouds at 6,000 feet AGL
Remarks:
site is un-manned
site is automated and HAS a precipitation sensor

Translated TAF for KATL (Hartsfield - Jackson Atlanta Intl, GA) (1729 UTC)
TAF text:
KATL 061729Z 0618/0724 35018G28KT P6SM SCT060
Forecast period:
Friday May 06 2016 18:00 UTC - Saturday May 07 2016 24:00 UTC
Forecast type:
FROM: standard forecast or significant change
Winds:
from the N (350 degrees) at 20.7 mph (18 knots: 9.3 m/s)
gusting to 32.2 mph (28 knots: 14.4 m/s)
Visibility:
6 or more mile(s) (9.7+ km)
Ceiling:
at least 12,000 feet AGL
Clouds:
Scattered Clouds at 6,000 feet AGL
Weather:
no significant weather observed at this time
TAF text:
FM070000 33012G20KT P6SM FEW070
Forecast period:
Saturday May 07 2016 00:00 UTC - Saturday May 07 2016 03:00 UTC
Forecast type:
FROM: standard forecast or significant change
Winds:
from the NNW (330 degrees) at 13.8 mph (12 knots: 6.2 m/s)
gusting to 23 mph (20 knots: 10.3 m/s)
Visibility:
6 or more mile(s) (9.7+ km)
Ceiling:
at least 12,000 feet AGL
Clouds:
Few Clouds at 7,000 feet AGL
Weather:
no significant weather observed at this time
TAF text:
FM070300 31008KT P6SM SKC
Forecast period:
Saturday May 07 2016 03:00 UTC - Saturday May 07 2016 15:00 UTC
Forecast type:
FROM: standard forecast or significant change
Winds:
from the NW (310 degrees) at 9.2 mph (8 knots: 4.1 m/s)
Visibility:
6 or more mile(s) (9.7+ km)
Ceiling:
at least 12,000 feet AGL
Clouds:
Clear Skies
Weather:
no significant weather observed at this time
TAF text:
FM071500 30012KT P6SM FEW045
Forecast period:
Saturday May 07 2016 15:00 UTC - Saturday May 07 2016 24:00 UTC
Forecast type:
FROM: standard forecast or significant change
Winds:
from the WNW (300 degrees) at 13.8 mph (12 knots: 6.2 m/s)
Visibility:
6 or more mile(s) (9.7+ km)
Ceiling:
at least 12,000 feet AGL
Clouds:
Few Clouds at 4,500 feet AGL
Weather:
no significant weather observed at this time
FBO's on the Field
FBO Company Facility Photos Services Transportation Aviation Fuel Prices: Prices include tax
Catering Weather Repair Courtesy Rental Type 100LL JetA JetA+ MOGAS 8087
 
CCO Airport Services

This FBO has not yet been rated
FS:Shell
Last Updated: Apr-01
Login to update fuel prices
SS:
Contact CCO Airport ServicesMore FBO Information
 
Add another FBO Facility Photos Catering Weather Repair Courtesy Rental Type 100LL JetA JetA+ MOGAS 8087
Services Transportation Aviation Fuel Prices: Prices include tax


model-print
model-print
model-print
model-print